sensor_id;sensor_type;location;lat;lon;timestamp;pressure;altitude;pressure_sealevel;temperature;humidity
51876;BME280;34054;52.100;5.116;2023-02-02T00:00:18;101897.44;;;7.81;100.00
51876;BME280;34054;52.100;5.116;2023-02-02T00:00:51;101900.31;;;7.86;100.00
51876;BME280;34054;52.100;5.116;2023-02-02T00:01:23;101888.06;;;7.77;100.00
51876;BME280;34054;52.100;5.116;2023-02-02T00:01:58;101894.09;;;7.79;100.00
51876;BME280;34054;52.100;5.116;2023-02-02T00:02:31;101897.03;;;7.77;100.00
51876;BME280;34054;52.100;5.116;2023-02-02T00:03:02;101902.44;;;7.70;100.00
51876;BME280;34054;52.100;5.116;2023-02-02T00:03:34;101894.50;;;7.82;100.00
51876;BME280;34054;52.100;5.116;2023-02-02T00:04:09;101905.94;;;7.91;100.00
51876;BME280;34054;52.100;5.116;2023-02-02T00:04:46;101898.47;;;7.93;100.00
51876;BME280;34054;52.100;5.116;2023-02-02T00:05:19;101899.72;;;7.84;100.00
51876;BME280;34054;52.100;5.116;2023-02-02T00:05:52;101904.75;;;7.80;100.00
51876;BME280;34054;52.100;5.116;2023-02-02T00:06:27;101902.22;;;7.79;100.00
51876;BME280;34054;52.100;5.116;2023-02-02T00:07:01;101898.06;;;7.83;100.00
51876;BME280;34054;52.100;5.116;2023-02-02T00:07:35;101909.53;;;7.78;100.00
51876;BME280;34054;52.100;5.116;2023-02-02T00:08:07;101909.72;;;7.77;100.00
51876;BME280;34054;52.100;5.116;2023-02-02T00:08:39;101908.88;;;7.83;100.00
51876;BME280;34054;52.100;5.116;2023-02-02T00:09:12;101910.31;;;7.92;100.00
51876;BME280;34054;52.100;5.116;2023-02-02T00:09:46;101913.84;;;7.93;100.00
51876;BME280;34054;52.100;5.116;2023-02-02T00:10:17;101911.53;;;7.96;100.00
51876;BME280;34054;52.100;5.116;2023-02-02T00:10:49;101901.16;;;7.93;100.00
51876;BME280;34054;52.100;5.116;2023-02-02T00:11:21;101909.47;;;7.92;100.00
51876;BME280;34054;52.100;5.116;2023-02-02T00:11:53;101909.44;;;8.05;100.00
51876;BME280;34054;52.100;5.116;2023-02-02T00:12:26;101914.63;;;8.07;100.00
51876;BME280;34054;52.100;5.116;2023-02-02T00:12:58;101910.91;;;8.01;100.00
51876;BME280;34054;52.100;5.116;2023-02-02T00:13:30;101913.84;;;7.93;100.00
51876;BME280;34054;52.100;5.116;2023-02-02T00:14:02;101920.09;;;7.86;100.00
51876;BME280;34054;52.100;5.116;2023-02-02T00:14:35;101912.22;;;7.72;100.00
51876;BME280;34054;52.100;5.116;2023-02-02T00:15:08;101907.03;;;7.63;100.00
51876;BME280;34054;52.100;5.116;2023-02-02T00:15:40;101906.22;;;7.49;100.00
51876;BME280;34054;52.100;5.116;2023-02-02T00:16:37;101910.19;;;7.53;100.00
51876;BME280;34054;52.100;5.116;2023-02-02T00:17:12;101915.16;;;7.63;100.00
51876;BME280;34054;52.100;5.116;2023-02-02T00:17:44;101916.81;;;7.58;100.00
51876;BME280;34054;52.100;5.116;2023-02-02T00:18:15;101917.03;;;7.56;100.00
51876;BME280;34054;52.100;5.116;2023-02-02T00:18:48;101917.22;;;7.61;100.00
51876;BME280;34054;52.100;5.116;2023-02-02T00:19:22;101920.78;;;7.62;100.00
51876;BME280;34054;52.100;5.116;2023-02-02T00:19:56;101919.13;;;7.61;100.00
51876;BME280;34054;52.100;5.116;2023-02-02T00:20:28;101915.19;;;7.43;100.00
51876;BME280;34054;52.100;5.116;2023-02-02T00:21:00;101923.50;;;7.55;100.00
51876;BME280;34054;52.100;5.116;2023-02-02T00:21:33;101930.13;;;7.66;100.00
51876;BME280;34054;52.100;5.116;2023-02-02T00:22:06;101914.97;;;7.51;100.00
51876;BME280;34054;52.100;5.116;2023-02-02T00:22:38;101925.38;;;7.54;100.00
51876;BME280;34054;52.100;5.116;2023-02-02T00:23:09;101926.19;;;7.62;100.00
51876;BME280;34054;52.100;5.116;2023-02-02T00:23:42;101921.59;;;7.62;100.00
51876;BME280;34054;52.100;5.116;2023-02-02T00:24:15;101933.88;;;7.58;100.00
51876;BME280;34054;52.100;5.116;2023-02-02T00:24:48;101930.75;;;7.61;100.00
51876;BME280;34054;52.100;5.116;2023-02-02T00:25:20;101927.81;;;7.76;100.00
51876;BME280;34054;52.100;5.116;2023-02-02T00:25:52;101923.66;;;7.74;100.00
51876;BME280;34054;52.100;5.116;2023-02-02T00:26:24;101924.94;;;7.64;100.00
51876;BME280;34054;52.100;5.116;2023-02-02T00:26:58;101927.84;;;7.56;100.00
51876;BME280;34054;52.100;5.116;2023-02-02T00:27:30;101924.94;;;7.58;100.00
51876;BME280;34054;52.100;5.116;2023-02-02T00:28:01;101928.88;;;7.68;100.00
51876;BME280;34054;52.100;5.116;2023-02-02T00:28:34;101924.94;;;7.58;100.00
51876;BME280;34054;52.100;5.116;2023-02-02T00:29:07;101924.94;;;7.64;100.00
51876;BME280;34054;52.100;5.116;2023-02-02T00:29:43;101922.00;;;7.66;100.00
51876;BME280;34054;52.100;5.116;2023-02-02T00:30:16;101921.19;;;7.65;100.00
51876;BME280;34054;52.100;5.116;2023-02-02T00:30:48;101918.66;;;7.70;100.00
51876;BME280;34054;52.100;5.116;2023-02-02T00:31:19;101918.88;;;7.76;100.00
51876;BME280;34054;52.100;5.116;2023-02-02T00:31:52;101918.25;;;7.74;100.00
51876;BME280;34054;52.100;5.116;2023-02-02T00:32:25;101923.22;;;7.77;100.00
51876;BME280;34054;52.100;5.116;2023-02-02T00:32:56;101920.34;;;7.78;100.00
51876;BME280;34054;52.100;5.116;2023-02-02T00:33:28;101922.81;;;7.80;100.00
51876;BME280;34054;52.100;5.116;2023-02-02T00:33:59;101916.59;;;7.79;100.00
51876;BME280;34054;52.100;5.116;2023-02-02T00:34:32;101925.06;;;7.90;100.00
51876;BME280;34054;52.100;5.116;2023-02-02T00:35:04;101924.06;;;7.77;100.00
51876;BME280;34054;52.100;5.116;2023-02-02T00:35:39;101927.38;;;7.86;100.00
51876;BME280;34054;52.100;5.116;2023-02-02T00:36:13;101911.16;;;7.86;100.00
51876;BME280;34054;52.100;5.116;2023-02-02T00:36:48;101920.28;;;7.85;100.00
51876;BME280;34054;52.100;5.116;2023-02-02T00:37:20;101925.13;;;7.83;100.00
51876;BME280;34054;52.100;5.116;2023-02-02T00:37:52;101924.06;;;7.84;100.00
51876;BME280;34054;52.100;5.116;2023-02-02T00:38:24;101927.81;;;7.83;100.00
51876;BME280;34054;52.100;5.116;2023-02-02T00:38:55;101916.59;;;7.73;100.00
51876;BME280;34054;52.100;5.116;2023-02-02T00:39:28;101917.84;;;7.63;100.00
51876;BME280;34054;52.100;5.116;2023-02-02T00:40:00;101926.56;;;7.72;100.00
51876;BME280;34054;52.100;5.116;2023-02-02T00:40:31;101924.09;;;7.64;100.00
51876;BME280;34054;52.100;5.116;2023-02-02T00:41:04;101928.25;;;7.66;100.00
51876;BME280;34054;52.100;5.116;2023-02-02T00:41:37;101920.16;;;7.66;100.00
51876;BME280;34054;52.100;5.116;2023-02-02T00:42:09;101922.41;;;7.69;100.00
51876;BME280;34054;52.100;5.116;2023-02-02T00:42:42;101904.78;;;7.53;100.00
51876;BME280;34054;52.100;5.116;2023-02-02T00:43:18;101929.91;;;7.74;100.00
51876;BME280;34054;52.100;5.116;2023-02-02T00:43:50;101925.53;;;7.80;100.00
51876;BME280;34054;52.100;5.116;2023-02-02T00:44:36;101930.94;;;7.80;100.00
51876;BME280;34054;52.100;5.116;2023-02-02T00:45:27;101924.06;;;7.77;100.00
51876;BME280;34054;52.100;5.116;2023-02-02T00:45:59;101924.50;;;7.74;100.00
51876;BME280;34054;52.100;5.116;2023-02-02T00:46:31;101927.63;;;7.51;100.00
51876;BME280;34054;52.100;5.116;2023-02-02T00:47:03;101924.97;;;7.37;100.00
51876;BME280;34054;52.100;5.116;2023-02-02T00:47:35;101917.88;;;7.36;100.00
51876;BME280;34054;52.100;5.116;2023-02-02T00:48:07;101925.38;;;7.41;100.00
51876;BME280;34054;52.100;5.116;2023-02-02T00:48:40;101927.03;;;7.35;100.00
51876;BME280;34054;52.100;5.116;2023-02-02T00:49:12;101929.31;;;7.38;100.00
51876;BME280;34054;52.100;5.116;2023-02-02T00:49:44;101928.69;;;7.30;100.00
51876;BME280;34054;52.100;5.116;2023-02-02T00:50:18;101929.53;;;7.30;100.00
51876;BME280;34054;52.100;5.116;2023-02-02T00:50:51;101928.28;;;7.33;100.00
51876;BME280;34054;52.100;5.116;2023-02-02T00:51:23;101925.19;;;7.36;100.00
51876;BME280;34054;52.100;5.116;2023-02-02T00:51:56;101924.53;;;7.34;100.00
51876;BME280;34054;52.100;5.116;2023-02-02T00:52:30;101928.69;;;7.30;100.00
51876;BME280;34054;52.100;5.116;2023-02-02T00:53:02;101926.59;;;7.25;100.00
51876;BME280;34054;52.100;5.116;2023-02-02T00:53:33;101926.00;;;7.30;100.00
51876;BME280;34054;52.100;5.116;2023-02-02T00:54:06;101933.47;;;7.34;100.00
51876;BME280;34054;52.100;5.116;2023-02-02T00:54:37;101931.41;;;7.43;100.00
51876;BME280;34054;52.100;5.116;2023-02-02T00:55:10;101932.88;;;7.32;100.00
51876;BME280;34054;52.100;5.116;2023-02-02T00:55:43;101926.19;;;7.28;100.00
51876;BME280;34054;52.100;5.116;2023-02-02T00:56:15;101930.97;;;7.33;100.00
51876;BME280;34054;52.100;5.116;2023-02-02T00:56:46;101931.19;;;7.31;100.00
51876;BME280;34054;52.100;5.116;2023-02-02T00:57:18;101925.38;;;7.28;100.00
51876;BME280;34054;52.100;5.116;2023-02-02T00:57:51;101936.19;;;7.21;100.00
51876;BME280;34054;52.100;5.116;2023-02-02T00:58:22;101930.78;;;7.21;100.00
51876;BME280;34054;52.100;5.116;2023-02-02T00:58:54;101924.31;;;7.15;100.00
51876;BME280;34054;52.100;5.116;2023-02-02T00:59:27;101934.31;;;7.15;100.00
51876;BME280;34054;52.100;5.116;2023-02-02T00:59:58;101924.53;;;7.27;100.00
51876;BME280;34054;52.100;5.116;2023-02-02T01:00:30;101926.41;;;7.27;100.00
51876;BME280;34054;52.100;5.116;2023-02-02T01:01:03;101932.88;;;7.12;100.00
51876;BME280;34054;52.100;5.116;2023-02-02T01:01:34;101928.28;;;7.13;100.00
51876;BME280;34054;52.100;5.116;2023-02-02T01:02:07;101936.59;;;7.11;100.00
51876;BME280;34054;52.100;5.116;2023-02-02T01:02:40;101925.78;;;7.11;100.00
51876;BME280;34054;52.100;5.116;2023-02-02T01:03:12;101929.94;;;7.14;100.00
51876;BME280;34054;52.100;5.116;2023-02-02T01:03:45;101936.59;;;7.25;100.00
51876;BME280;34054;52.100;5.116;2023-02-02T01:04:16;101936.59;;;7.31;100.00
51876;BME280;34054;52.100;5.116;2023-02-02T01:04:48;101921.63;;;7.22;100.00
51876;BME280;34054;52.100;5.116;2023-02-02T01:05:20;101931.84;;;7.33;100.00
51876;BME280;34054;52.100;5.116;2023-02-02T01:05:52;101933.69;;;7.26;100.00
51876;BME280;34054;52.100;5.116;2023-02-02T01:06:24;101932.25;;;7.30;100.00
51876;BME280;34054;52.100;5.116;2023-02-02T01:06:58;101935.38;;;7.20;100.00
51876;BME280;34054;52.100;5.116;2023-02-02T01:07:30;101933.06;;;7.24;100.00
51876;BME280;34054;52.100;5.116;2023-02-02T01:08:02;101929.53;;;7.23;100.00
51876;BME280;34054;52.100;5.116;2023-02-02T01:08:35;101933.28;;;7.16;100.00
51876;BME280;34054;52.100;5.116;2023-02-02T01:09:06;101938.25;;;7.05;100.00
51876;BME280;34054;52.100;5.116;2023-02-02T01:09:38;101934.28;;;7.01;100.00
51876;BME280;34054;52.100;5.116;2023-02-02T01:10:13;101935.97;;;7.09;100.00
51876;BME280;34054;52.100;5.116;2023-02-02T01:10:48;101924.94;;;6.90;100.00
51876;BME280;34054;52.100;5.116;2023-02-02T01:11:19;101926.81;;;6.90;100.00
51876;BME280;34054;52.100;5.116;2023-02-02T01:11:51;101929.91;;;7.00;100.00
51876;BME280;34054;52.100;5.116;2023-02-02T01:12:24;101934.91;;;7.03;100.00
51876;BME280;34054;52.100;5.116;2023-02-02T01:12:55;101934.31;;;7.08;100.00
51876;BME280;34054;52.100;5.116;2023-02-02T01:13:27;101927.03;;;7.15;100.00
51876;BME280;34054;52.100;5.116;2023-02-02T01:14:00;101929.72;;;7.08;100.00
51876;BME280;34054;52.100;5.116;2023-02-02T01:14:31;101930.78;;;7.14;100.00
51876;BME280;34054;52.100;5.116;2023-02-02T01:15:04;101926.22;;;7.15;100.00
51876;BME280;34054;52.100;5.116;2023-02-02T01:15:37;101925.38;;;7.21;100.00
51876;BME280;34054;52.100;5.116;2023-02-02T01:16:09;101925.38;;;7.28;100.00
51876;BME280;34054;52.100;5.116;2023-02-02T01:16:41;101928.28;;;7.26;100.00
51876;BME280;34054;52.100;5.116;2023-02-02T01:17:13;101929.50;;;7.17;100.00
51876;BME280;34054;52.100;5.116;2023-02-02T01:17:46;101932.22;;;7.17;100.00
51876;BME280;34054;52.100;5.116;2023-02-02T01:18:17;101935.97;;;7.22;100.00
51876;BME280;34054;52.100;5.116;2023-02-02T01:18:49;101937.00;;;7.21;100.00
51876;BME280;34054;52.100;5.116;2023-02-02T01:19:21;101929.13;;;7.20;100.00
51876;BME280;34054;52.100;5.116;2023-02-02T01:19:54;101928.28;;;7.13;100.00
51876;BME280;34054;52.100;5.116;2023-02-02T01:20:25;101927.22;;;7.07;100.00
51876;BME280;34054;52.100;5.116;2023-02-02T01:20:58;101935.97;;;7.02;100.00
51876;BME280;34054;52.100;5.116;2023-02-02T01:21:31;101935.34;;;7.07;100.00
51876;BME280;34054;52.100;5.116;2023-02-02T01:22:04;101943.22;;;7.08;100.00
51876;BME280;34054;52.100;5.116;2023-02-02T01:22:36;101935.34;;;7.14;100.00
51876;BME280;34054;52.100;5.116;2023-02-02T01:23:08;101942.22;;;7.16;100.00
51876;BME280;34054;52.100;5.116;2023-02-02T01:23:40;101938.88;;;7.14;100.00
51876;BME280;34054;52.100;5.116;2023-02-02T01:24:11;101944.28;;;7.07;100.00
51876;BME280;34054;52.100;5.116;2023-02-02T01:24:44;101944.72;;;7.11;100.00
51876;BME280;34054;52.100;5.116;2023-02-02T01:25:16;101932.44;;;7.22;100.00
51876;BME280;34054;52.100;5.116;2023-02-02T01:25:52;101932.88;;;7.32;100.00
51876;BME280;34054;52.100;5.116;2023-02-02T01:26:24;101932.03;;;7.38;100.00
51876;BME280;34054;52.100;5.116;2023-02-02T01:26:56;101931.81;;;7.40;100.00
51876;BME280;34054;52.100;5.116;2023-02-02T01:27:29;101926.63;;;7.32;100.00
51876;BME280;34054;52.100;5.116;2023-02-02T01:28:00;101925.78;;;7.38;100.00
51876;BME280;34054;52.100;5.116;2023-02-02T01:28:32;101930.78;;;7.48;100.00
51876;BME280;34054;52.100;5.116;2023-02-02T01:29:05;101934.50;;;7.60;100.00
51876;BME280;34054;52.100;5.116;2023-02-02T01:29:37;101931.38;;;7.57;100.00
51876;BME280;34054;52.100;5.116;2023-02-02T01:30:10;101937.00;;;7.55;100.00
51876;BME280;34054;52.100;5.116;2023-02-02T01:30:42;101933.88;;;7.58;100.00
51876;BME280;34054;52.100;5.116;2023-02-02T01:31:16;101930.56;;;7.56;100.00
51876;BME280;34054;52.100;5.116;2023-02-02T01:31:50;101934.72;;;7.65;100.00
51876;BME280;34054;52.100;5.116;2023-02-02T01:32:22;101934.31;;;7.55;100.00
51876;BME280;34054;52.100;5.116;2023-02-02T01:32:54;101932.00;;;7.59;100.00
51876;BME280;34054;52.100;5.116;2023-02-02T01:33:26;101925.97;;;7.63;100.00
51876;BME280;34054;52.100;5.116;2023-02-02T01:33:58;101935.75;;;7.64;100.00
51876;BME280;34054;52.100;5.116;2023-02-02T01:34:29;101932.00;;;7.65;100.00
51876;BME280;34054;52.100;5.116;2023-02-02T01:35:02;101927.63;;;7.71;100.00
51876;BME280;34054;52.100;5.116;2023-02-02T01:35:34;101921.78;;;7.81;100.00
51876;BME280;34054;52.100;5.116;2023-02-02T01:36:09;101917.66;;;7.58;100.00
51876;BME280;34054;52.100;5.116;2023-02-02T01:36:43;101917.25;;;7.54;100.00
51876;BME280;34054;52.100;5.116;2023-02-02T01:37:16;101917.88;;;7.36;100.00
51876;BME280;34054;52.100;5.116;2023-02-02T01:37:48;101919.97;;;7.41;100.00
51876;BME280;34054;52.100;5.116;2023-02-02T01:38:21;101914.56;;;7.34;100.00
51876;BME280;34054;52.100;5.116;2023-02-02T01:38:54;101917.91;;;7.23;100.00
51876;BME280;34054;52.100;5.116;2023-02-02T01:39:26;101926.22;;;7.35;100.00
51876;BME280;34054;52.100;5.116;2023-02-02T01:39:58;101929.53;;;7.44;100.00
51876;BME280;34054;52.100;5.116;2023-02-02T01:40:29;101931.59;;;7.55;100.00
51876;BME280;34054;52.100;5.116;2023-02-02T01:41:01;101927.00;;;7.69;100.00
51876;BME280;34054;52.100;5.116;2023-02-02T01:41:35;101924.31;;;7.76;100.00
51876;BME280;34054;52.100;5.116;2023-02-02T01:42:11;101922.41;;;7.83;100.00
51876;BME280;34054;52.100;5.116;2023-02-02T01:42:44;101931.13;;;7.85;100.00
51876;BME280;34054;52.100;5.116;2023-02-02T01:43:21;101930.31;;;7.78;100.00
51876;BME280;34054;52.100;5.116;2023-02-02T01:43:56;101927.41;;;7.79;100.00
51876;BME280;34054;52.100;5.116;2023-02-02T01:45:03;101922.38;;;7.90;100.00
51876;BME280;34054;52.100;5.116;2023-02-02T01:45:48;101924.47;;;7.88;100.00
51876;BME280;34054;52.100;5.116;2023-02-02T01:46:23;101922.34;;;7.96;100.00
51876;BME280;34054;52.100;5.116;2023-02-02T01:46:56;101923.59;;;8.00;100.00
51876;BME280;34054;52.100;5.116;2023-02-02T01:47:30;101924.03;;;7.91;100.00
51876;BME280;34054;52.100;5.116;2023-02-02T01:48:07;101926.34;;;7.87;100.00
51876;BME280;34054;52.100;5.116;2023-02-02T01:48:40;101929.91;;;7.81;100.00
51876;BME280;34054;52.100;5.116;2023-02-02T01:49:18;101925.69;;;7.92;100.00
51876;BME280;34054;52.100;5.116;2023-02-02T01:49:53;101924.44;;;7.94;100.00
51876;BME280;34054;52.100;5.116;2023-02-02T01:50:28;101930.91;;;7.93;100.00
51876;BME280;34054;52.100;5.116;2023-02-02T01:51:06;101936.72;;;7.97;100.00
51876;BME280;34054;52.100;5.116;2023-02-02T01:51:50;101929.84;;;7.94;100.00
51876;BME280;34054;52.100;5.116;2023-02-02T01:52:28;101923.66;;;7.74;100.00
51876;BME280;34054;52.100;5.116;2023-02-02T01:53:04;101929.72;;;7.69;100.00
51876;BME280;34054;52.100;5.116;2023-02-02T01:53:40;101930.56;;;7.63;100.00
51876;BME280;34054;52.100;5.116;2023-02-02T01:54:16;101927.00;;;7.62;100.00
51876;BME280;34054;52.100;5.116;2023-02-02T01:54:53;101934.50;;;7.67;100.00
51876;BME280;34054;52.100;5.116;2023-02-02T01:55:30;101929.50;;;7.64;100.00
51876;BME280;34054;52.100;5.116;2023-02-02T01:56:06;101932.81;;;7.73;100.00
51876;BME280;34054;52.100;5.116;2023-02-02T01:56:47;101935.13;;;7.76;100.00
51876;BME280;34054;52.100;5.116;2023-02-02T01:57:26;101934.09;;;7.70;100.00
51876;BME280;34054;52.100;5.116;2023-02-02T01:58:03;101926.16;;;7.68;100.00
51876;BME280;34054;52.100;5.116;2023-02-02T01:58:40;101930.75;;;7.75;100.00
51876;BME280;34054;52.100;5.116;2023-02-02T01:59:14;101928.63;;;7.83;100.00
51876;BME280;34054;52.100;5.116;2023-02-02T01:59:48;101931.13;;;7.85;100.00
51876;BME280;34054;52.100;5.116;2023-02-02T02:00:25;101929.09;;;7.60;100.00
51876;BME280;34054;52.100;5.116;2023-02-02T02:00:58;101934.91;;;7.70;100.00
51876;BME280;34054;52.100;5.116;2023-02-02T02:01:29;101929.09;;;7.67;100.00
51876;BME280;34054;52.100;5.116;2023-02-02T02:02:01;101929.31;;;7.65;100.00
51876;BME280;34054;52.100;5.116;2023-02-02T02:02:35;101929.91;;;7.74;100.00
51876;BME280;34054;52.100;5.116;2023-02-02T02:03:10;101934.69;;;7.79;100.00
51876;BME280;34054;52.100;5.116;2023-02-02T02:03:45;101927.00;;;7.76;100.00
51876;BME280;34054;52.100;5.116;2023-02-02T02:04:17;101926.78;;;7.84;100.00
51876;BME280;34054;52.100;5.116;2023-02-02T02:04:49;101930.31;;;7.84;100.00
51876;BME280;34054;52.100;5.116;2023-02-02T02:05:26;101933.84;;;7.72;100.00
51876;BME280;34054;52.100;5.116;2023-02-02T02:06:06;101927.41;;;7.73;100.00
51876;BME280;34054;52.100;5.116;2023-02-02T02:06:40;101930.13;;;7.73;100.00
51876;BME280;34054;52.100;5.116;2023-02-02T02:07:12;101925.34;;;7.61;100.00
51876;BME280;34054;52.100;5.116;2023-02-02T02:07:48;101924.94;;;7.64;100.00
51876;BME280;34054;52.100;5.116;2023-02-02T02:08:24;101923.28;;;7.50;100.00
51876;BME280;34054;52.100;5.116;2023-02-02T02:09:01;101920.38;;;7.45;100.00
51876;BME280;34054;52.100;5.116;2023-02-02T02:09:35;101926.00;;;7.43;100.00
51876;BME280;34054;52.100;5.116;2023-02-02T02:10:07;101925.78;;;7.45;100.00
51876;BME280;34054;52.100;5.116;2023-02-02T02:10:40;101927.03;;;7.49;100.00
51876;BME280;34054;52.100;5.116;2023-02-02T02:11:13;101932.22;;;7.57;100.00
51876;BME280;34054;52.100;5.116;2023-02-02T02:11:44;101926.19;;;7.48;100.00
51876;BME280;34054;52.100;5.116;2023-02-02T02:12:16;101929.09;;;7.47;100.00
51876;BME280;34054;52.100;5.116;2023-02-02T02:12:49;101938.66;;;7.56;100.00
51876;BME280;34054;52.100;5.116;2023-02-02T02:13:22;101924.94;;;7.51;100.00
51876;BME280;34054;52.100;5.116;2023-02-02T02:14:17;101925.78;;;7.51;100.00
51876;BME280;34054;52.100;5.116;2023-02-02T02:15:08;101930.34;;;7.51;100.00
51876;BME280;34054;52.100;5.116;2023-02-02T02:16:05;101919.13;;;7.54;100.00
51876;BME280;34054;52.100;5.116;2023-02-02T02:16:58;101921.38;;;7.64;100.00
51876;BME280;34054;52.100;5.116;2023-02-02T02:18:01;101920.38;;;7.58;100.00
51876;BME280;34054;52.100;5.116;2023-02-02T02:18:46;101916.19;;;7.55;100.00
51876;BME280;34054;52.100;5.116;2023-02-02T02:21:47;101908.47;;;7.73;100.00
51876;BME280;34054;52.100;5.116;2023-02-02T02:23:08;101914.56;;;7.54;100.00
51876;BME280;34054;52.100;5.116;2023-02-02T02:26:16;101920.16;;;7.60;100.00
51876;BME280;34054;52.100;5.116;2023-02-02T02:29:22;101923.91;;;7.52;100.00
51876;BME280;34054;52.100;5.116;2023-02-02T02:30:25;101920.38;;;7.45;100.00
51876;BME280;34054;52.100;5.116;2023-02-02T02:31:46;101918.72;;;7.50;100.00
51876;BME280;34054;52.100;5.116;2023-02-02T02:32:37;101919.53;;;7.51;100.00
51876;BME280;34054;52.100;5.116;2023-02-02T02:33:20;101922.22;;;7.64;100.00
51876;BME280;34054;52.100;5.116;2023-02-02T02:34:04;101919.53;;;7.64;100.00
51876;BME280;34054;52.100;5.116;2023-02-02T02:34:50;101920.56;;;7.57;100.00
51876;BME280;34054;52.100;5.116;2023-02-02T02:35:35;101913.28;;;7.64;100.00
51876;BME280;34054;52.100;5.116;2023-02-02T02:36:16;101918.03;;;7.68;100.00
51876;BME280;34054;52.100;5.116;2023-02-02T02:37:02;101912.03;;;7.66;100.00
51876;BME280;34054;52.100;5.116;2023-02-02T02:37:44;101912.03;;;7.66;100.00
51876;BME280;34054;52.100;5.116;2023-02-02T02:38:25;101918.09;;;7.62;100.00
51876;BME280;34054;52.100;5.116;2023-02-02T02:39:11;101899.38;;;7.53;100.00
51876;BME280;34054;52.100;5.116;2023-02-02T02:39:49;101904.16;;;7.51;100.00
51876;BME280;34054;52.100;5.116;2023-02-02T02:40:31;101906.63;;;7.53;100.00
51876;BME280;34054;52.100;5.116;2023-02-02T02:41:08;101912.44;;;7.57;100.00
51876;BME280;34054;52.100;5.116;2023-02-02T02:41:48;101910.59;;;7.44;100.00
51876;BME280;34054;52.100;5.116;2023-02-02T02:42:25;101908.53;;;7.39;100.00
51876;BME280;34054;52.100;5.116;2023-02-02T02:43:04;101907.06;;;7.43;100.00
51876;BME280;34054;52.100;5.116;2023-02-02T02:43:42;101916.22;;;7.49;100.00
51876;BME280;34054;52.100;5.116;2023-02-02T02:44:22;101912.47;;;7.50;100.00
51876;BME280;34054;52.100;5.116;2023-02-02T02:45:00;101901.22;;;7.53;100.00
51876;BME280;34054;52.100;5.116;2023-02-02T02:45:34;101908.13;;;7.49;100.00
51876;BME280;34054;52.100;5.116;2023-02-02T02:46:09;101902.06;;;7.40;100.00
51876;BME280;34054;52.100;5.116;2023-02-02T02:46:43;101902.06;;;7.53;100.00
51876;BME280;34054;52.100;5.116;2023-02-02T02:47:18;101895.41;;;7.43;100.00
51876;BME280;34054;52.100;5.116;2023-02-02T02:47:52;101900.41;;;7.39;100.00
51876;BME280;34054;52.100;5.116;2023-02-02T02:48:24;101896.47;;;7.42;100.00
51876;BME280;34054;52.100;5.116;2023-02-02T02:48:56;101907.28;;;7.48;100.00
51876;BME280;34054;52.100;5.116;2023-02-02T02:49:29;101890.44;;;7.39;100.00
51876;BME280;34054;52.100;5.116;2023-02-02T02:50:01;101899.59;;;7.38;100.00
51876;BME280;34054;52.100;5.116;2023-02-02T02:50:34;101893.34;;;7.38;100.00
51876;BME280;34054;52.100;5.116;2023-02-02T02:51:07;101891.50;;;7.38;100.00
51876;BME280;34054;52.100;5.116;2023-02-02T02:51:59;101894.38;;;7.50;100.00
51876;BME280;34054;52.100;5.116;2023-02-02T02:52:31;101896.44;;;7.55;100.00
51876;BME280;34054;52.100;5.116;2023-02-02T02:53:08;101884.38;;;7.51;100.00
51876;BME280;34054;52.100;5.116;2023-02-02T02:53:43;101894.78;;;7.47;100.00
51876;BME280;34054;52.100;5.116;2023-02-02T02:54:17;101897.91;;;7.51;100.00
51876;BME280;34054;52.100;5.116;2023-02-02T02:54:53;101892.94;;;7.48;100.00
51876;BME280;34054;52.100;5.116;2023-02-02T02:55:33;101882.75;;;7.50;100.00
51876;BME280;34054;52.100;5.116;2023-02-02T02:56:15;101899.56;;;7.59;100.00
51876;BME280;34054;52.100;5.116;2023-02-02T02:58:20;101892.94;;;7.48;100.00
51876;BME280;34054;52.100;5.116;2023-02-02T02:59:09;101892.09;;;7.54;100.00
51876;BME280;34054;52.100;5.116;2023-02-02T02:59:51;101893.53;;;7.57;100.00
51876;BME280;34054;52.100;5.116;2023-02-02T03:00:39;101896.03;;;7.58;100.00
51876;BME280;34054;52.100;5.116;2023-02-02T03:01:21;101892.06;;;7.67;100.00
51876;BME280;34054;52.100;5.116;2023-02-02T03:02:13;101888.97;;;7.57;100.00
51876;BME280;34054;52.100;5.116;2023-02-02T03:03:07;101883.97;;;7.67;100.00
51876;BME280;34054;52.100;5.116;2023-02-02T03:04:06;101892.25;;;7.73;100.00
51876;BME280;34054;52.100;5.116;2023-02-02T03:04:52;101884.38;;;7.64;100.00
51876;BME280;34054;52.100;5.116;2023-02-02T03:05:40;101893.13;;;7.66;100.00
51876;BME280;34054;52.100;5.116;2023-02-02T03:06:27;101888.13;;;7.57;100.00
51876;BME280;34054;52.100;5.116;2023-02-02T03:07:06;101891.22;;;7.60;100.00
51876;BME280;34054;52.100;5.116;2023-02-02T03:07:49;101883.75;;;7.62;100.00
51876;BME280;34054;52.100;5.116;2023-02-02T03:08:31;101876.09;;;7.52;100.00
51876;BME280;34054;52.100;5.116;2023-02-02T03:09:10;101886.50;;;7.49;100.00
51876;BME280;34054;52.100;5.116;2023-02-02T03:09:46;101887.31;;;7.56;100.00
51876;BME280;34054;52.100;5.116;2023-02-02T03:10:23;101882.94;;;7.55;100.00
51876;BME280;34054;52.100;5.116;2023-02-02T03:11:00;101895.00;;;7.52;100.00
51876;BME280;34054;52.100;5.116;2023-02-02T03:11:35;101896.63;;;7.60;100.00
51876;BME280;34054;52.100;5.116;2023-02-02T03:12:07;101895.41;;;7.56;100.00
51876;BME280;34054;52.100;5.116;2023-02-02T03:12:43;101899.38;;;7.53;100.00
51876;BME280;34054;52.100;5.116;2023-02-02T03:13:17;101896.84;;;7.65;100.00
51876;BME280;34054;52.100;5.116;2023-02-02T03:13:50;101909.13;;;7.68;100.00
51876;BME280;34054;52.100;5.116;2023-02-02T03:14:21;101900.38;;;7.66;100.00
51876;BME280;34054;52.100;5.116;2023-02-02T03:14:54;101907.66;;;7.65;100.00